createdAt,value
2022-11-27T00:03:53.297Z,23.48
2022-11-27T00:08:59.889Z,20.98
2022-11-27T00:14:01.731Z,21.05
2022-11-27T00:19:03.472Z,22.95
2022-11-27T00:24:07.338Z,20.38
2022-11-27T00:29:09.705Z,22.02
2022-11-27T00:34:11.390Z,19.77
2022-11-27T00:39:12.997Z,20.00
2022-11-27T00:44:14.629Z,19.97
2022-11-27T00:49:16.701Z,20.47
2022-11-27T00:54:21.769Z,19.10
2022-11-27T00:59:24.409Z,19.77
2022-11-27T01:04:26.071Z,19.50
2022-11-27T01:09:27.676Z,20.33
2022-11-27T01:14:29.415Z,19.77
2022-11-27T01:19:31.020Z,19.67
2022-11-27T01:24:32.642Z,20.23
2022-11-27T01:29:34.216Z,19.83
2022-11-27T01:34:35.836Z,20.40
2022-11-27T01:39:37.462Z,18.70
2022-11-27T01:44:51.645Z,16.70
2022-11-27T01:49:56.385Z,17.07
2022-11-27T01:55:12.551Z,17.43
2022-11-27T02:00:15.746Z,14.53
2022-11-27T02:05:21.169Z,14.37
2022-11-27T02:10:54.814Z,15.03
2022-11-27T02:16:04.864Z,17.50
2022-11-27T02:21:29.390Z,16.50
2022-11-27T02:26:58.315Z,15.93
2022-11-27T02:32:12.475Z,15.90
2022-11-27T02:37:22.926Z,14.53
2022-11-27T02:42:28.593Z,15.47
2022-11-27T02:47:31.866Z,15.13
2022-11-27T02:52:33.617Z,15.17
2022-11-27T02:57:38.295Z,16.13
2022-11-27T03:02:46.176Z,16.43
2022-11-27T03:07:54.314Z,15.00
2022-11-27T03:12:56.115Z,16.13
2022-11-27T03:18:11.514Z,17.07
2022-11-27T03:23:13.166Z,17.37
2022-11-27T03:28:15.972Z,15.60
2022-11-27T03:33:18.491Z,15.77
2022-11-27T03:38:20.298Z,16.20
2022-11-27T03:43:33.158Z,16.67
2022-11-27T03:48:59.112Z,15.93
2022-11-27T03:54:08.376Z,16.90
2022-11-27T03:59:31.294Z,16.47
2022-11-27T04:04:32.884Z,14.93
2022-11-27T04:09:34.441Z,15.07
2022-11-27T04:14:36.102Z,14.77
2022-11-27T04:19:37.712Z,15.83
2022-11-27T04:24:39.519Z,16.03
2022-11-27T04:29:41.332Z,14.73
2022-11-27T04:34:43.101Z,14.33
2022-11-27T04:39:44.784Z,14.83
2022-11-27T04:44:46.354Z,14.67
2022-11-27T04:49:47.994Z,14.63
2022-11-27T04:54:49.601Z,14.87
2022-11-27T04:59:51.213Z,14.10
2022-11-27T05:04:52.862Z,14.27
2022-11-27T05:09:54.476Z,13.73
2022-11-27T05:14:56.833Z,13.83
2022-11-27T05:20:00.283Z,14.23
2022-11-27T05:25:01.880Z,14.03
2022-11-27T05:30:04.056Z,13.63
2022-11-27T05:35:06.083Z,12.83
2022-11-27T05:40:08.235Z,13.20
2022-11-27T05:45:10.236Z,14.53
2022-11-27T05:50:11.878Z,13.83
2022-11-27T05:55:13.554Z,13.10
2022-11-27T06:00:15.779Z,13.70
2022-11-27T06:05:23.425Z,13.17
2022-11-27T06:10:25.001Z,13.50
2022-11-27T06:15:26.639Z,14.73
2022-11-27T06:20:28.335Z,15.77
2022-11-27T06:25:29.899Z,13.57
2022-11-27T06:30:31.487Z,13.37
2022-11-27T06:35:33.131Z,12.93
2022-11-27T06:40:34.685Z,13.00
2022-11-27T06:45:36.267Z,13.20
2022-11-27T06:50:37.884Z,13.00
2022-11-27T06:55:39.494Z,13.67
2022-11-27T07:00:41.333Z,13.40
2022-11-27T07:05:42.911Z,13.60
2022-11-27T07:10:44.563Z,15.37
2022-11-27T07:15:46.138Z,12.80
2022-11-27T07:20:56.564Z,14.10
2022-11-27T07:25:59.126Z,13.80
2022-11-27T07:31:00.770Z,15.03
2022-11-27T07:36:05.489Z,15.07
2022-11-27T07:41:07.297Z,13.87
2022-11-27T07:46:14.679Z,13.63
2022-11-27T07:51:19.769Z,13.33
2022-11-27T07:56:21.581Z,13.70
2022-11-27T08:01:23.348Z,14.47
2022-11-27T08:06:26.944Z,14.27
2022-11-27T08:11:32.808Z,14.87
2022-11-27T08:16:36.182Z,16.17
2022-11-27T08:21:37.959Z,15.40
2022-11-27T08:26:39.576Z,15.97
2022-11-27T08:31:41.268Z,16.93
2022-11-27T08:36:43.004Z,17.10
2022-11-27T08:41:44.556Z,18.13
2022-11-27T08:46:50.633Z,18.37
2022-11-27T08:51:52.274Z,20.38
2022-11-27T08:56:53.875Z,21.38
2022-11-27T09:01:55.489Z,21.25
2022-11-27T09:06:58.614Z,21.00
2022-11-27T09:12:00.515Z,20.40
2022-11-27T09:17:02.219Z,20.40
2022-11-27T09:22:04.037Z,20.48
2022-11-27T09:27:05.595Z,18.05
2022-11-27T09:32:07.194Z,17.98
2022-11-27T09:37:09.206Z,15.05
2022-11-27T09:42:26.619Z,15.32
2022-11-27T09:47:41.665Z,15.57
2022-11-27T09:52:52.504Z,14.13
2022-11-27T09:58:13.065Z,13.48
2022-11-27T10:03:16.677Z,14.02
2022-11-27T10:08:31.745Z,11.63
2022-11-27T10:13:33.318Z,13.27
2022-11-27T10:18:50.600Z,13.00
2022-11-27T10:24:12.248Z,12.23
2022-11-27T10:29:36.864Z,12.13
2022-11-27T10:34:43.340Z,11.98
2022-11-27T10:39:50.383Z,10.88
2022-11-27T10:44:59.259Z,10.25
2022-11-27T10:50:01.160Z,10.05
2022-11-27T10:55:13.282Z,11.07
2022-11-27T11:00:23.128Z,10.90
2022-11-27T11:06:11.713Z,13.40
2022-11-27T11:10:58.397Z,13.32
2022-11-27T11:16:16.114Z,11.85
2022-11-27T11:21:33.093Z,12.18
2022-11-27T11:26:39.014Z,11.30
2022-11-27T11:31:41.528Z,11.50
2022-11-27T11:37:06.721Z,11.60
2022-11-27T11:42:10.516Z,11.80
2022-11-27T11:47:20.661Z,11.30
2022-11-27T11:52:40.918Z,11.77
2022-11-27T11:57:57.953Z,11.50
2022-11-27T12:03:02.655Z,11.45
2022-11-27T12:08:33.375Z,12.13
2022-11-27T12:13:47.120Z,12.43
2022-11-27T12:19:15.036Z,13.15
2022-11-27T12:24:28.631Z,13.73
2022-11-27T12:29:51.582Z,13.63
2022-11-27T12:35:18.178Z,16.02
2022-11-27T12:40:28.457Z,15.38
2022-11-27T12:45:49.664Z,14.48
2022-11-27T12:50:59.197Z,15.52
2022-11-27T12:56:20.513Z,15.40
2022-11-27T13:01:39.598Z,14.27
2022-11-27T13:07:27.050Z,14.30
2022-11-27T13:13:00.851Z,12.82
2022-11-27T13:18:21.238Z,12.82
2022-11-27T13:23:23.713Z,12.00
2022-11-27T13:28:38.708Z,11.93
2022-11-27T13:33:44.879Z,11.60
2022-11-27T13:38:53.251Z,11.35
2022-11-27T13:43:54.927Z,10.95
2022-11-27T13:49:03.100Z,10.68
2022-11-27T13:54:07.934Z,10.55
2022-11-27T13:59:19.913Z,10.98
2022-11-27T14:04:21.586Z,9.73
2022-11-27T14:09:34.886Z,10.30
2022-11-27T14:14:36.791Z,9.63
2022-11-27T14:19:45.275Z,10.38
2022-11-27T14:24:55.893Z,10.43
2022-11-27T14:29:57.469Z,11.02
2022-11-27T14:34:59.138Z,11.02
2022-11-27T14:40:00.725Z,11.20
2022-11-27T14:45:16.953Z,10.05
2022-11-27T14:50:21.027Z,11.48
2022-11-27T14:55:31.575Z,12.10
2022-11-27T15:00:36.202Z,10.77
2022-11-27T15:05:39.133Z,10.30
2022-11-27T15:10:41.734Z,10.13
2022-11-27T15:15:44.579Z,10.30
2022-11-27T15:20:46.742Z,11.27
2022-11-27T15:26:03.494Z,10.05
2022-11-27T15:31:31.003Z,9.43
2022-11-27T15:36:44.799Z,9.52
2022-11-27T15:42:00.629Z,9.57
2022-11-27T15:47:04.363Z,9.50
2022-11-27T15:52:06.333Z,8.70
2022-11-27T15:57:07.954Z,9.18
2022-11-27T16:02:16.065Z,9.40
2022-11-27T16:07:19.390Z,9.70
2022-11-27T16:12:21.064Z,11.65
2022-11-27T16:17:22.672Z,10.23
2022-11-27T16:22:24.289Z,10.77
2022-11-27T16:27:25.901Z,11.18
2022-11-27T16:32:27.500Z,14.40
2022-11-27T16:37:29.062Z,12.20
2022-11-27T16:42:31.059Z,12.82
2022-11-27T16:47:34.013Z,11.52
2022-11-27T16:52:36.286Z,11.35
2022-11-27T16:57:37.908Z,10.75
2022-11-27T17:02:39.563Z,11.13
2022-11-27T17:07:42.546Z,11.18
2022-11-27T17:12:44.237Z,10.45
2022-11-27T17:17:45.907Z,10.55
2022-11-27T17:22:47.677Z,10.57
2022-11-27T17:27:49.358Z,10.77
2022-11-27T17:32:51.572Z,13.18
2022-11-27T17:37:53.201Z,13.98
2022-11-27T17:42:54.796Z,12.27
2022-11-27T17:47:56.377Z,12.88
2022-11-27T17:52:58.152Z,13.30
2022-11-27T17:57:59.785Z,14.43
2022-11-27T18:03:07.133Z,14.05
2022-11-27T18:08:09.049Z,14.02
2022-11-27T18:13:10.744Z,16.10
2022-11-27T18:18:12.313Z,14.90
2022-11-27T18:23:15.156Z,14.65
2022-11-27T18:28:16.755Z,15.90
2022-11-27T18:33:18.345Z,15.30
2022-11-27T18:38:19.905Z,15.32
2022-11-27T18:43:21.768Z,14.65
2022-11-27T18:48:23.408Z,13.45
2022-11-27T18:53:25.019Z,14.32
2022-11-27T18:58:26.831Z,15.88
2022-11-27T19:03:28.808Z,15.65
2022-11-27T19:08:30.583Z,15.50
2022-11-27T19:13:33.063Z,14.68
2022-11-27T19:18:36.886Z,15.18
2022-11-27T19:23:39.475Z,15.82
2022-11-27T19:28:43.403Z,15.10
2022-11-27T19:33:50.231Z,14.80
2022-11-27T19:38:55.468Z,18.77
2022-11-27T19:43:57.499Z,16.73
2022-11-27T19:49:01.457Z,14.95
2022-11-27T19:54:08.389Z,15.25
2022-11-27T19:59:13.273Z,16.30
2022-11-27T20:04:15.872Z,15.30
2022-11-27T20:09:19.082Z,15.13
2022-11-27T20:14:21.266Z,15.63
2022-11-27T20:19:23.195Z,20.30
2022-11-27T20:24:24.802Z,15.17
2022-11-27T20:29:27.445Z,15.77
2022-11-27T20:34:29.035Z,16.70
2022-11-27T20:39:30.678Z,15.93
2022-11-27T20:44:32.274Z,15.00
2022-11-27T20:49:33.887Z,16.77
2022-11-27T20:54:36.017Z,16.47
2022-11-27T20:59:37.718Z,16.00
2022-11-27T21:04:39.421Z,14.73
2022-11-27T21:09:41.223Z,15.37
2022-11-27T21:14:44.176Z,16.83
2022-11-27T21:19:45.793Z,15.47
2022-11-27T21:24:50.768Z,15.20
2022-11-27T21:29:52.546Z,15.20
2022-11-27T21:34:54.110Z,15.00
2022-11-27T21:39:56.513Z,14.30
2022-11-27T21:44:59.206Z,16.10
2022-11-27T21:50:00.839Z,16.17
2022-11-27T21:55:06.615Z,15.33
2022-11-27T22:00:10.938Z,14.03
2022-11-27T22:05:13.672Z,13.50
2022-11-27T22:10:15.400Z,13.17
2022-11-27T22:15:18.584Z,12.60
2022-11-27T22:20:20.451Z,14.73
2022-11-27T22:25:22.047Z,13.77
2022-11-27T22:30:24.866Z,13.57
2022-11-27T22:35:27.017Z,12.90
2022-11-27T22:40:28.580Z,12.53
2022-11-27T22:45:30.231Z,12.83
2022-11-27T22:50:32.240Z,12.95
2022-11-27T22:55:35.470Z,11.60
2022-11-27T23:00:37.297Z,11.70
2022-11-27T23:05:44.069Z,11.48
2022-11-27T23:10:49.788Z,10.50
2022-11-27T23:15:51.401Z,10.05
2022-11-27T23:20:53.024Z,11.57
2022-11-27T23:25:54.623Z,11.73
2022-11-27T23:31:15.582Z,12.00
2022-11-27T23:36:17.756Z,11.85
2022-11-27T23:41:22.776Z,12.93
2022-11-27T23:46:27.199Z,11.95
2022-11-27T23:51:32.038Z,12.10
2022-11-27T23:56:33.763Z,10.48
